sensor_id;sensor_type;location;lat;lon;timestamp;pressure;altitude;pressure_sealevel;temperature;humidity
16331;BME280;8275;48.206;16.340;2023-06-26T00:00:12;99258.78;;;25.07;36.91
16331;BME280;8275;48.206;16.340;2023-06-26T00:02:40;99261.91;;;25.05;37.08
16331;BME280;8275;48.206;16.340;2023-06-26T00:05:10;99256.22;;;25.02;37.31
16331;BME280;8275;48.206;16.340;2023-06-26T00:07:40;99266.25;;;25.03;37.19
16331;BME280;8275;48.206;16.340;2023-06-26T00:10:09;99260.16;;;25.01;37.22
16331;BME280;8275;48.206;16.340;2023-06-26T00:12:38;99264.16;;;25.00;37.13
16331;BME280;8275;48.206;16.340;2023-06-26T00:15:07;99263.69;;;24.98;37.39
16331;BME280;8275;48.206;16.340;2023-06-26T00:17:38;99258.41;;;24.96;37.52
16331;BME280;8275;48.206;16.340;2023-06-26T00:20:09;99271.97;;;24.94;37.41
16331;BME280;8275;48.206;16.340;2023-06-26T00:22:38;99268.72;;;24.92;37.47
16331;BME280;8275;48.206;16.340;2023-06-26T00:25:08;99273.84;;;24.90;37.66
16331;BME280;8275;48.206;16.340;2023-06-26T00:27:36;99275.00;;;24.89;37.57
16331;BME280;8275;48.206;16.340;2023-06-26T00:30:06;99271.75;;;24.87;37.68
16331;BME280;8275;48.206;16.340;2023-06-26T00:32:35;99258.91;;;24.86;37.70
16331;BME280;8275;48.206;16.340;2023-06-26T00:35:05;99267.19;;;24.83;37.88
16331;BME280;8275;48.206;16.340;2023-06-26T00:37:35;99267.88;;;24.80;38.08
16331;BME280;8275;48.206;16.340;2023-06-26T00:40:05;99261.34;;;24.76;38.22
16331;BME280;8275;48.206;16.340;2023-06-26T00:42:34;99261.81;;;24.78;38.05
16331;BME280;8275;48.206;16.340;2023-06-26T00:45:03;99261.81;;;24.78;38.07
16331;BME280;8275;48.206;16.340;2023-06-26T00:47:31;99260.19;;;24.77;37.99
16331;BME280;8275;48.206;16.340;2023-06-26T00:50:00;99256.91;;;24.75;38.15
16331;BME280;8275;48.206;16.340;2023-06-26T00:52:30;99259.19;;;24.73;38.12
16331;BME280;8275;48.206;16.340;2023-06-26T00:55:00;99251.16;;;24.71;38.06
16331;BME280;8275;48.206;16.340;2023-06-26T00:57:30;99253.50;;;24.69;38.15
16331;BME280;8275;48.206;16.340;2023-06-26T00:59:59;99255.00;;;24.67;38.38
16331;BME280;8275;48.206;16.340;2023-06-26T01:02:28;99252.56;;;24.65;38.26
16331;BME280;8275;48.206;16.340;2023-06-26T01:05:02;99247.66;;;24.62;38.46
16331;BME280;8275;48.206;16.340;2023-06-26T01:07:34;99248.34;;;24.59;38.53
16331;BME280;8275;48.206;16.340;2023-06-26T01:10:08;99245.44;;;24.56;38.55
16331;BME280;8275;48.206;16.340;2023-06-26T01:12:37;99246.59;;;24.55;38.79
16331;BME280;8275;48.206;16.340;2023-06-26T01:15:07;99244.84;;;24.50;38.71
16331;BME280;8275;48.206;16.340;2023-06-26T01:17:38;99237.63;;;24.49;38.96
16331;BME280;8275;48.206;16.340;2023-06-26T01:20:09;99243.56;;;24.48;39.03
16331;BME280;8275;48.206;16.340;2023-06-26T01:22:45;99239.81;;;24.43;39.25
16331;BME280;8275;48.206;16.340;2023-06-26T01:25:26;99242.97;;;24.42;39.12
16331;BME280;8275;48.206;16.340;2023-06-26T01:27:59;99236.56;;;24.41;39.06
16331;BME280;8275;48.206;16.340;2023-06-26T01:30:28;99239.72;;;24.40;39.09
16331;BME280;8275;48.206;16.340;2023-06-26T01:32:57;99236.09;;;24.39;39.04
16331;BME280;8275;48.206;16.340;2023-06-26T01:35:27;99231.19;;;24.36;39.13
16331;BME280;8275;48.206;16.340;2023-06-26T01:38:12;99234.69;;;24.33;39.31
16331;BME280;8275;48.206;16.340;2023-06-26T01:40:41;99230.34;;;24.36;39.06
16331;BME280;8275;48.206;16.340;2023-06-26T01:43:22;99230.59;;;24.31;39.29
16331;BME280;8275;48.206;16.340;2023-06-26T01:45:59;99232.22;;;24.32;39.28
16331;BME280;8275;48.206;16.340;2023-06-26T01:48:36;99237.00;;;24.31;39.25
16331;BME280;8275;48.206;16.340;2023-06-26T01:51:07;99230.59;;;24.31;39.24
16331;BME280;8275;48.206;16.340;2023-06-26T01:53:41;99225.78;;;24.31;39.40
16331;BME280;8275;48.206;16.340;2023-06-26T01:56:14;99229.31;;;24.28;39.59
16331;BME280;8275;48.206;16.340;2023-06-26T01:58:47;99220.91;;;24.28;39.75
16331;BME280;8275;48.206;16.340;2023-06-26T02:01:16;99220.91;;;24.28;39.60
16331;BME280;8275;48.206;16.340;2023-06-26T02:03:44;99222.06;;;24.27;39.93
16331;BME280;8275;48.206;16.340;2023-06-26T02:06:13;99212.84;;;24.27;39.96
16331;BME280;8275;48.206;16.340;2023-06-26T02:08:42;99212.38;;;24.25;39.98
16331;BME280;8275;48.206;16.340;2023-06-26T02:11:10;99215.53;;;24.23;40.05
16331;BME280;8275;48.206;16.340;2023-06-26T02:13:39;99222.66;;;24.21;40.27
16331;BME280;8275;48.206;16.340;2023-06-26T02:16:09;99212.94;;;24.18;40.17
16331;BME280;8275;48.206;16.340;2023-06-26T02:18:37;99215.28;;;24.16;40.27
16331;BME280;8275;48.206;16.340;2023-06-26T02:21:09;99217.63;;;24.14;40.42
16331;BME280;8275;48.206;16.340;2023-06-26T02:23:37;99214.34;;;24.12;40.24
16331;BME280;8275;48.206;16.340;2023-06-26T02:26:06;99218.66;;;24.10;40.47
16331;BME280;8275;48.206;16.340;2023-06-26T02:28:34;99213.75;;;24.07;40.68
16331;BME280;8275;48.206;16.340;2023-06-26T02:31:03;99224.13;;;24.06;40.44
16331;BME280;8275;48.206;16.340;2023-06-26T02:33:33;99223.16;;;24.02;40.74
16331;BME280;8275;48.206;16.340;2023-06-26T02:36:01;99221.53;;;24.01;40.73
16331;BME280;8275;48.206;16.340;2023-06-26T02:38:30;99221.38;;;23.98;40.89
16331;BME280;8275;48.206;16.340;2023-06-26T02:40:58;99218.13;;;23.96;40.78
16331;BME280;8275;48.206;16.340;2023-06-26T02:43:26;99227.66;;;23.95;40.79
16331;BME280;8275;48.206;16.340;2023-06-26T02:45:55;99230.81;;;23.93;40.68
16331;BME280;8275;48.206;16.340;2023-06-26T02:48:23;99230.34;;;23.91;40.78
16331;BME280;8275;48.206;16.340;2023-06-26T02:50:53;99226.25;;;23.89;40.80
16331;BME280;8275;48.206;16.340;2023-06-26T02:53:22;99236.63;;;23.88;40.96
16331;BME280;8275;48.206;16.340;2023-06-26T02:55:50;99231.84;;;23.89;40.74
16331;BME280;8275;48.206;16.340;2023-06-26T02:58:18;99223.81;;;23.87;40.76
16331;BME280;8275;48.206;16.340;2023-06-26T03:00:47;99223.34;;;23.85;40.77
16331;BME280;8275;48.206;16.340;2023-06-26T03:03:16;99227.78;;;23.86;40.99
16331;BME280;8275;48.206;16.340;2023-06-26T03:05:45;99231.38;;;23.87;40.97
16331;BME280;8275;48.206;16.340;2023-06-26T03:08:15;99232.91;;;23.84;40.79
16331;BME280;8275;48.206;16.340;2023-06-26T03:10:43;99233.72;;;23.85;40.87
16331;BME280;8275;48.206;16.340;2023-06-26T03:13:11;99237.34;;;23.85;40.96
16331;BME280;8275;48.206;16.340;2023-06-26T03:15:40;99234.19;;;23.87;40.83
16331;BME280;8275;48.206;16.340;2023-06-26T03:18:08;99230.22;;;23.88;40.89
16331;BME280;8275;48.206;16.340;2023-06-26T03:20:37;99234.31;;;23.90;40.96
16331;BME280;8275;48.206;16.340;2023-06-26T03:23:05;99243.53;;;23.91;40.80
16331;BME280;8275;48.206;16.340;2023-06-26T03:25:35;99236.78;;;23.92;40.95
16331;BME280;8275;48.206;16.340;2023-06-26T03:28:04;99235.59;;;23.93;40.85
16331;BME280;8275;48.206;16.340;2023-06-26T03:30:32;99240.03;;;23.94;40.95
16331;BME280;8275;48.206;16.340;2023-06-26T03:33:01;99232.47;;;23.94;40.77
16331;BME280;8275;48.206;16.340;2023-06-26T03:35:29;99238.53;;;23.96;40.69
16331;BME280;8275;48.206;16.340;2023-06-26T03:37:58;99241.81;;;23.98;40.83
16331;BME280;8275;48.206;16.340;2023-06-26T03:40:27;99246.56;;;23.98;40.95
16331;BME280;8275;48.206;16.340;2023-06-26T03:42:57;99243.41;;;23.99;40.66
16331;BME280;8275;48.206;16.340;2023-06-26T03:45:26;99251.13;;;24.02;40.93
16331;BME280;8275;48.206;16.340;2023-06-26T03:47:54;99246.84;;;24.05;40.75
16331;BME280;8275;48.206;16.340;2023-06-26T03:50:23;99253.75;;;24.07;40.96
16331;BME280;8275;48.206;16.340;2023-06-26T03:52:51;99251.88;;;24.11;40.73
16331;BME280;8275;48.206;16.340;2023-06-26T03:55:21;99243.97;;;24.13;40.57
16331;BME280;8275;48.206;16.340;2023-06-26T03:57:51;99250.16;;;24.19;40.71
16331;BME280;8275;48.206;16.340;2023-06-26T04:00:21;99253.06;;;24.22;40.65
16331;BME280;8275;48.206;16.340;2023-06-26T04:02:49;99253.69;;;24.28;40.63
16331;BME280;8275;48.206;16.340;2023-06-26T04:05:18;99256.28;;;24.33;40.44
16331;BME280;8275;48.206;16.340;2023-06-26T04:07:50;99256.06;;;24.38;40.64
16331;BME280;8275;48.206;16.340;2023-06-26T04:10:19;99256.25;;;24.45;40.47
16331;BME280;8275;48.206;16.340;2023-06-26T04:12:48;99250.13;;;24.52;40.42
16331;BME280;8275;48.206;16.340;2023-06-26T04:15:16;99250.69;;;24.57;40.28
16331;BME280;8275;48.206;16.340;2023-06-26T04:17:46;99252.09;;;24.63;40.25
16331;BME280;8275;48.206;16.340;2023-06-26T04:20:15;99253.13;;;24.71;40.25
16331;BME280;8275;48.206;16.340;2023-06-26T04:22:43;99257.41;;;24.77;40.31
16331;BME280;8275;48.206;16.340;2023-06-26T04:25:11;99250.00;;;24.84;40.05
16331;BME280;8275;48.206;16.340;2023-06-26T04:27:40;99261.13;;;24.93;40.06
16331;BME280;8275;48.206;16.340;2023-06-26T04:30:10;99257.72;;;24.99;40.02
16331;BME280;8275;48.206;16.340;2023-06-26T04:32:39;99256.19;;;25.14;39.67
16331;BME280;8275;48.206;16.340;2023-06-26T04:35:09;99255.69;;;25.36;39.57
16331;BME280;8275;48.206;16.340;2023-06-26T04:37:38;99253.19;;;25.59;39.34
16331;BME280;8275;48.206;16.340;2023-06-26T04:40:09;99253.97;;;25.71;39.11
16331;BME280;8275;48.206;16.340;2023-06-26T04:42:38;99250.63;;;25.82;39.28
16331;BME280;8275;48.206;16.340;2023-06-26T04:45:07;99252.81;;;25.88;39.28
16331;BME280;8275;48.206;16.340;2023-06-26T04:47:36;99250.22;;;25.95;39.00
16331;BME280;8275;48.206;16.340;2023-06-26T04:50:06;99255.22;;;26.02;39.26
16331;BME280;8275;48.206;16.340;2023-06-26T04:52:37;99253.91;;;26.11;38.89
16331;BME280;8275;48.206;16.340;2023-06-26T04:55:06;99250.97;;;26.20;38.87
16331;BME280;8275;48.206;16.340;2023-06-26T04:57:35;99257.56;;;26.27;38.94
16331;BME280;8275;48.206;16.340;2023-06-26T05:00:04;99262.22;;;26.35;38.99
16331;BME280;8275;48.206;16.340;2023-06-26T05:02:38;99260.88;;;26.45;38.36
16331;BME280;8275;48.206;16.340;2023-06-26T05:05:07;99260.31;;;26.55;38.34
16331;BME280;8275;48.206;16.340;2023-06-26T05:07:37;99256.53;;;26.63;38.49
16331;BME280;8275;48.206;16.340;2023-06-26T05:10:07;99259.59;;;26.74;38.46
16331;BME280;8275;48.206;16.340;2023-06-26T05:12:35;99255.44;;;26.83;38.42
16331;BME280;8275;48.206;16.340;2023-06-26T05:15:05;99256.44;;;26.91;38.37
16331;BME280;8275;48.206;16.340;2023-06-26T05:17:34;99253.50;;;27.03;37.94
16331;BME280;8275;48.206;16.340;2023-06-26T05:20:03;99252.22;;;27.16;37.47
16331;BME280;8275;48.206;16.340;2023-06-26T05:22:33;99251.28;;;27.28;37.22
16331;BME280;8275;48.206;16.340;2023-06-26T05:25:06;99258.00;;;27.39;37.57
16331;BME280;8275;48.206;16.340;2023-06-26T05:27:37;99253.41;;;27.50;37.15
16331;BME280;8275;48.206;16.340;2023-06-26T05:30:08;99254.81;;;27.59;36.31
16331;BME280;8275;48.206;16.340;2023-06-26T05:32:38;99257.81;;;27.66;36.35
16331;BME280;8275;48.206;16.340;2023-06-26T05:35:08;99256.75;;;27.74;35.84
16331;BME280;8275;48.206;16.340;2023-06-26T05:37:37;99254.09;;;27.81;35.29
16331;BME280;8275;48.206;16.340;2023-06-26T05:40:09;99251.84;;;27.91;35.05
16331;BME280;8275;48.206;16.340;2023-06-26T05:42:39;99254.13;;;28.01;34.66
16331;BME280;8275;48.206;16.340;2023-06-26T05:45:09;99251.06;;;28.09;34.70
16331;BME280;8275;48.206;16.340;2023-06-26T05:47:38;99251.19;;;28.16;34.37
16331;BME280;8275;48.206;16.340;2023-06-26T05:50:09;99248.94;;;28.25;34.67
16331;BME280;8275;48.206;16.340;2023-06-26T05:52:38;99249.16;;;28.36;34.30
16331;BME280;8275;48.206;16.340;2023-06-26T05:55:11;99248.47;;;28.42;34.16
16331;BME280;8275;48.206;16.340;2023-06-26T05:57:41;99252.28;;;28.53;33.56
16331;BME280;8275;48.206;16.340;2023-06-26T06:00:11;99251.69;;;28.64;33.48
16331;BME280;8275;48.206;16.340;2023-06-26T06:02:42;99247.44;;;28.73;33.53
16331;BME280;8275;48.206;16.340;2023-06-26T06:05:10;99246.78;;;28.83;33.27
16331;BME280;8275;48.206;16.340;2023-06-26T06:07:39;99245.34;;;28.93;33.19
16331;BME280;8275;48.206;16.340;2023-06-26T06:10:10;99249.13;;;29.04;33.08
16331;BME280;8275;48.206;16.340;2023-06-26T06:12:38;99252.94;;;29.15;32.75
16331;BME280;8275;48.206;16.340;2023-06-26T06:15:07;99245.03;;;29.24;33.01
16331;BME280;8275;48.206;16.340;2023-06-26T06:17:36;99243.63;;;29.37;32.69
16331;BME280;8275;48.206;16.340;2023-06-26T06:20:05;99245.84;;;29.51;32.49
16331;BME280;8275;48.206;16.340;2023-06-26T06:22:34;99241.13;;;29.62;32.49
16331;BME280;8275;48.206;16.340;2023-06-26T06:25:02;99243.72;;;29.74;32.27
16331;BME280;8275;48.206;16.340;2023-06-26T06:27:32;99247.13;;;29.86;32.19
16331;BME280;8275;48.206;16.340;2023-06-26T06:30:01;99239.97;;;29.96;31.78
16331;BME280;8275;48.206;16.340;2023-06-26T06:32:31;99246.97;;;30.09;31.72
16331;BME280;8275;48.206;16.340;2023-06-26T06:34:59;99241.03;;;30.18;31.31
16331;BME280;8275;48.206;16.340;2023-06-26T06:37:31;99240.28;;;30.24;31.33
16331;BME280;8275;48.206;16.340;2023-06-26T06:39:59;99240.38;;;30.31;30.71
16331;BME280;8275;48.206;16.340;2023-06-26T06:42:28;99251.78;;;30.38;30.85
16331;BME280;8275;48.206;16.340;2023-06-26T06:44:58;99250.63;;;30.46;30.73
16331;BME280;8275;48.206;16.340;2023-06-26T06:47:26;99251.53;;;30.58;30.47
16331;BME280;8275;48.206;16.340;2023-06-26T06:49:55;99236.28;;;30.66;30.52
16331;BME280;8275;48.206;16.340;2023-06-26T06:52:23;99234.75;;;30.75;30.15
16331;BME280;8275;48.206;16.340;2023-06-26T06:54:53;99242.47;;;30.82;30.20
16331;BME280;8275;48.206;16.340;2023-06-26T06:57:22;99238.16;;;30.91;29.88
16331;BME280;8275;48.206;16.340;2023-06-26T06:59:50;99239.03;;;31.02;29.93
16331;BME280;8275;48.206;16.340;2023-06-26T07:02:20;99243.56;;;31.14;29.56
16331;BME280;8275;48.206;16.340;2023-06-26T07:04:48;99230.28;;;31.25;29.61
16331;BME280;8275;48.206;16.340;2023-06-26T07:07:19;99245.31;;;31.33;29.49
16331;BME280;8275;48.206;16.340;2023-06-26T07:09:47;99248.56;;;31.38;29.23
16331;BME280;8275;48.206;16.340;2023-06-26T07:12:16;99236.44;;;31.41;29.08
16331;BME280;8275;48.206;16.340;2023-06-26T07:14:44;99245.81;;;31.45;28.52
16331;BME280;8275;48.206;16.340;2023-06-26T07:17:13;99232.88;;;31.44;28.57
16331;BME280;8275;48.206;16.340;2023-06-26T07:19:43;99237.75;;;31.47;28.65
16331;BME280;8275;48.206;16.340;2023-06-26T07:22:11;99240.19;;;31.52;28.83
16331;BME280;8275;48.206;16.340;2023-06-26T07:24:39;99240.19;;;31.52;28.68
16331;BME280;8275;48.206;16.340;2023-06-26T07:27:08;99239.81;;;31.57;28.31
16331;BME280;8275;48.206;16.340;2023-06-26T07:29:36;99242.28;;;31.66;28.40
16331;BME280;8275;48.206;16.340;2023-06-26T07:32:06;99241.50;;;31.72;28.02
16331;BME280;8275;48.206;16.340;2023-06-26T07:34:34;99248.03;;;31.83;27.99
16331;BME280;8275;48.206;16.340;2023-06-26T07:37:04;99241.19;;;31.95;27.76
16331;BME280;8275;48.206;16.340;2023-06-26T07:39:33;99248.16;;;32.08;27.85
16331;BME280;8275;48.206;16.340;2023-06-26T07:42:01;99247.34;;;32.15;27.18
16331;BME280;8275;48.206;16.340;2023-06-26T07:44:30;99239.28;;;32.20;26.92
16331;BME280;8275;48.206;16.340;2023-06-26T07:46:58;99245.78;;;32.31;27.11
16331;BME280;8275;48.206;16.340;2023-06-26T07:49:27;99239.72;;;32.43;26.89
16331;BME280;8275;48.206;16.340;2023-06-26T07:51:55;99235.72;;;32.55;26.67
16331;BME280;8275;48.206;16.340;2023-06-26T07:54:25;99241.78;;;32.61;26.32
16331;BME280;8275;48.206;16.340;2023-06-26T07:56:56;99242.59;;;32.54;26.26
16331;BME280;8275;48.206;16.340;2023-06-26T07:59:26;99244.59;;;32.46;26.48
16331;BME280;8275;48.206;16.340;2023-06-26T08:01:57;99247.41;;;32.43;27.10
16331;BME280;8275;48.206;16.340;2023-06-26T08:04:27;99239.34;;;32.48;26.75
16331;BME280;8275;48.206;16.340;2023-06-26T08:06:58;99235.34;;;32.60;26.85
16331;BME280;8275;48.206;16.340;2023-06-26T08:09:29;99237.34;;;32.67;26.53
16331;BME280;8275;48.206;16.340;2023-06-26T08:11:59;99240.59;;;32.72;27.06
16331;BME280;8275;48.206;16.340;2023-06-26T08:14:27;99241.44;;;32.76;26.58
16331;BME280;8275;48.206;16.340;2023-06-26T08:16:56;99238.16;;;32.81;26.42
16331;BME280;8275;48.206;16.340;2023-06-26T08:19:26;99228.84;;;32.88;26.60
16331;BME280;8275;48.206;16.340;2023-06-26T08:21:55;99231.25;;;32.93;26.72
16331;BME280;8275;48.206;16.340;2023-06-26T08:24:23;99235.72;;;32.97;26.56
16331;BME280;8275;48.206;16.340;2023-06-26T08:26:53;99234.09;;;32.96;26.41
16331;BME280;8275;48.206;16.340;2023-06-26T08:29:21;99243.03;;;32.98;25.94
16331;BME280;8275;48.206;16.340;2023-06-26T08:31:50;99236.13;;;32.96;26.51
16331;BME280;8275;48.206;16.340;2023-06-26T08:34:18;99240.59;;;32.93;26.12
16331;BME280;8275;48.206;16.340;2023-06-26T08:36:47;99235.34;;;32.92;26.70
16331;BME280;8275;48.206;16.340;2023-06-26T08:39:15;99229.25;;;32.86;26.25
16331;BME280;8275;48.206;16.340;2023-06-26T08:41:44;99231.69;;;32.81;26.44
16331;BME280;8275;48.206;16.340;2023-06-26T08:44:14;99235.31;;;32.74;26.67
16331;BME280;8275;48.206;16.340;2023-06-26T08:46:43;99232.50;;;32.71;26.98
16331;BME280;8275;48.206;16.340;2023-06-26T08:49:18;99231.28;;;32.65;26.80
16331;BME280;8275;48.206;16.340;2023-06-26T08:51:52;99222.34;;;32.70;26.79
16331;BME280;8275;48.206;16.340;2023-06-26T08:54:33;99224.78;;;32.75;26.61
16331;BME280;8275;48.206;16.340;2023-06-26T08:57:04;99221.53;;;32.83;27.01
16331;BME280;8275;48.206;16.340;2023-06-26T08:59:35;99222.38;;;32.87;26.82
16331;BME280;8275;48.206;16.340;2023-06-26T09:02:04;99220.34;;;32.88;26.83
16331;BME280;8275;48.206;16.340;2023-06-26T09:04:34;99211.00;;;32.87;26.45
16331;BME280;8275;48.206;16.340;2023-06-26T09:07:03;99203.72;;;32.90;26.16
16331;BME280;8275;48.206;16.340;2023-06-26T09:09:32;99213.00;;;32.97;26.51
16331;BME280;8275;48.206;16.340;2023-06-26T09:12:02;99210.56;;;32.99;26.04
16331;BME280;8275;48.206;16.340;2023-06-26T09:14:31;99198.00;;;33.00;26.33
16331;BME280;8275;48.206;16.340;2023-06-26T09:17:01;99201.69;;;33.01;26.45
16331;BME280;8275;48.206;16.340;2023-06-26T09:19:30;99201.28;;;33.02;26.15
16331;BME280;8275;48.206;16.340;2023-06-26T09:22:01;99204.13;;;33.02;26.18
16331;BME280;8275;48.206;16.340;2023-06-26T09:24:30;99199.25;;;33.03;25.72
16331;BME280;8275;48.206;16.340;2023-06-26T09:26:59;99207.78;;;33.03;25.74
16331;BME280;8275;48.206;16.340;2023-06-26T09:29:29;99204.13;;;33.02;26.34
16331;BME280;8275;48.206;16.340;2023-06-26T09:32:01;99191.53;;;33.07;26.36
16331;BME280;8275;48.206;16.340;2023-06-26T09:34:33;99193.97;;;33.12;25.67
16331;BME280;8275;48.206;16.340;2023-06-26T09:37:02;99208.56;;;33.14;25.46
16331;BME280;8275;48.206;16.340;2023-06-26T09:39:31;99197.59;;;33.16;26.10
16331;BME280;8275;48.206;16.340;2023-06-26T09:42:00;99198.00;;;33.21;25.96
16331;BME280;8275;48.206;16.340;2023-06-26T09:44:33;99196.78;;;33.22;25.36
16331;BME280;8275;48.206;16.340;2023-06-26T09:47:03;99189.88;;;33.23;25.33
16331;BME280;8275;48.206;16.340;2023-06-26T09:49:32;99195.97;;;33.25;25.74
16331;BME280;8275;48.206;16.340;2023-06-26T09:52:02;99194.34;;;33.24;25.80
16331;BME280;8275;48.206;16.340;2023-06-26T09:54:30;99192.75;;;33.20;25.56
16331;BME280;8275;48.206;16.340;2023-06-26T09:57:08;99187.47;;;33.18;25.57
16331;BME280;8275;48.206;16.340;2023-06-26T09:59:36;99191.53;;;33.24;25.80
16331;BME280;8275;48.206;16.340;2023-06-26T10:02:07;99198.00;;;33.25;25.05
16331;BME280;8275;48.206;16.340;2023-06-26T10:04:36;99189.06;;;33.23;25.56
16331;BME280;8275;48.206;16.340;2023-06-26T10:07:08;99185.84;;;33.21;25.34
16331;BME280;8275;48.206;16.340;2023-06-26T10:09:42;99180.56;;;33.19;25.44
16331;BME280;8275;48.206;16.340;2023-06-26T10:12:17;99183.41;;;33.16;25.00
16331;BME280;8275;48.206;16.340;2023-06-26T10:14:46;99177.34;;;33.17;24.97
16331;BME280;8275;48.206;16.340;2023-06-26T10:17:19;99172.47;;;33.14;25.40
16331;BME280;8275;48.206;16.340;2023-06-26T10:19:48;99175.72;;;33.16;24.88
16331;BME280;8275;48.206;16.340;2023-06-26T10:22:20;99173.69;;;33.17;25.36
16331;BME280;8275;48.206;16.340;2023-06-26T10:24:51;99174.06;;;33.15;25.15
16331;BME280;8275;48.206;16.340;2023-06-26T10:27:21;99164.75;;;33.11;24.81
16331;BME280;8275;48.206;16.340;2023-06-26T10:29:54;99165.19;;;33.10;25.05
16331;BME280;8275;48.206;16.340;2023-06-26T10:32:26;99166.00;;;33.10;25.16
16331;BME280;8275;48.206;16.340;2023-06-26T10:34:56;99159.09;;;33.08;25.21
16331;BME280;8275;48.206;16.340;2023-06-26T10:37:43;99155.88;;;33.02;24.79
16331;BME280;8275;48.206;16.340;2023-06-26T10:40:13;99153.41;;;33.04;25.24
16331;BME280;8275;48.206;16.340;2023-06-26T10:42:42;99156.25;;;33.04;24.80
16331;BME280;8275;48.206;16.340;2023-06-26T10:45:13;99152.22;;;33.05;24.96
16331;BME280;8275;48.206;16.340;2023-06-26T10:47:48;99155.44;;;33.07;24.52
16331;BME280;8275;48.206;16.340;2023-06-26T10:50:23;99152.94;;;33.27;24.46
16331;BME280;8275;48.206;16.340;2023-06-26T10:53:15;99150.84;;;33.49;24.07
16331;BME280;8275;48.206;16.340;2023-06-26T10:55:50;99138.91;;;33.89;24.00
16331;BME280;8275;48.206;16.340;2023-06-26T10:58:41;99142.19;;;34.42;24.07
16331;BME280;8275;48.206;16.340;2023-06-26T11:01:18;99137.97;;;35.09;23.43
16331;BME280;8275;48.206;16.340;2023-06-26T11:04:00;99140.16;;;35.65;22.44
16331;BME280;8275;48.206;16.340;2023-06-26T11:06:40;99136.63;;;36.15;21.38
16331;BME280;8275;48.206;16.340;2023-06-26T11:09:18;99139.25;;;36.55;21.58
16331;BME280;8275;48.206;16.340;2023-06-26T11:11:59;99134.72;;;37.04;20.97
16331;BME280;8275;48.206;16.340;2023-06-26T11:14:32;99130.16;;;37.50;20.54
16331;BME280;8275;48.206;16.340;2023-06-26T11:17:05;99132.13;;;37.92;20.61
16331;BME280;8275;48.206;16.340;2023-06-26T11:19:35;99125.22;;;38.41;20.55
16331;BME280;8275;48.206;16.340;2023-06-26T11:22:05;99118.69;;;38.89;19.46
16331;BME280;8275;48.206;16.340;2023-06-26T11:24:34;99125.66;;;39.33;19.11
16331;BME280;8275;48.206;16.340;2023-06-26T11:27:05;99123.28;;;39.73;18.82
16331;BME280;8275;48.206;16.340;2023-06-26T11:29:33;99117.03;;;40.03;17.85
16331;BME280;8275;48.206;16.340;2023-06-26T11:32:05;99116.22;;;40.28;18.04
16331;BME280;8275;48.206;16.340;2023-06-26T11:34:35;99113.44;;;40.62;17.85
16331;BME280;8275;48.206;16.340;2023-06-26T11:37:05;99124.28;;;41.05;17.74
16331;BME280;8275;48.206;16.340;2023-06-26T11:39:35;99115.50;;;41.43;16.92
16331;BME280;8275;48.206;16.340;2023-06-26T11:42:05;99118.19;;;41.80;16.95
16331;BME280;8275;48.206;16.340;2023-06-26T11:44:40;99119.50;;;42.19;16.49
16331;BME280;8275;48.206;16.340;2023-06-26T11:47:14;99122.38;;;42.50;16.45
16331;BME280;8275;48.206;16.340;2023-06-26T11:49:44;99122.09;;;42.75;15.66
16331;BME280;8275;48.206;16.340;2023-06-26T11:52:14;99119.59;;;42.95;15.48
16331;BME280;8275;48.206;16.340;2023-06-26T11:54:43;99111.94;;;43.19;15.29
16331;BME280;8275;48.206;16.340;2023-06-26T11:57:14;99106.78;;;43.60;15.79
16331;BME280;8275;48.206;16.340;2023-06-26T11:59:42;99105.06;;;44.04;15.20
16331;BME280;8275;48.206;16.340;2023-06-26T12:02:13;99092.88;;;44.42;14.70
16331;BME280;8275;48.206;16.340;2023-06-26T12:04:44;99096.72;;;44.72;14.07
16331;BME280;8275;48.206;16.340;2023-06-26T12:07:14;99100.63;;;44.92;13.95
16331;BME280;8275;48.206;16.340;2023-06-26T12:09:45;99100.06;;;45.03;13.54
16331;BME280;8275;48.206;16.340;2023-06-26T12:12:16;99105.56;;;45.15;14.19
16331;BME280;8275;48.206;16.340;2023-06-26T12:14:46;99097.06;;;45.36;13.67
16331;BME280;8275;48.206;16.340;2023-06-26T12:17:15;99095.78;;;45.51;13.20
16331;BME280;8275;48.206;16.340;2023-06-26T12:19:46;99086.13;;;45.69;12.91
16331;BME280;8275;48.206;16.340;2023-06-26T12:22:18;99092.44;;;45.97;13.16
16331;BME280;8275;48.206;16.340;2023-06-26T12:24:47;99095.50;;;46.22;12.87
16331;BME280;8275;48.206;16.340;2023-06-26T12:27:18;99087.47;;;46.46;12.92
16331;BME280;8275;48.206;16.340;2023-06-26T12:29:51;99086.81;;;46.72;12.28
16331;BME280;8275;48.206;16.340;2023-06-26T12:32:23;99086.66;;;46.81;12.09
16331;BME280;8275;48.206;16.340;2023-06-26T12:34:57;99086.00;;;46.91;12.17
16331;BME280;8275;48.206;16.340;2023-06-26T12:37:26;99081.72;;;47.07;12.05
16331;BME280;8275;48.206;16.340;2023-06-26T12:39:56;99077.28;;;47.32;12.10
16331;BME280;8275;48.206;16.340;2023-06-26T12:42:26;99080.25;;;47.63;11.96
16331;BME280;8275;48.206;16.340;2023-06-26T12:44:55;99085.81;;;47.92;11.41
16331;BME280;8275;48.206;16.340;2023-06-26T12:47:25;99071.53;;;48.20;11.66
16331;BME280;8275;48.206;16.340;2023-06-26T12:49:57;99071.78;;;48.53;11.58
16331;BME280;8275;48.206;16.340;2023-06-26T12:52:25;99066.63;;;48.79;11.16
16331;BME280;8275;48.206;16.340;2023-06-26T12:54:55;99062.00;;;49.09;10.75
16331;BME280;8275;48.206;16.340;2023-06-26T12:57:24;99071.66;;;49.43;11.00
16331;BME280;8275;48.206;16.340;2023-06-26T12:59:54;99067.22;;;49.59;10.33
16331;BME280;8275;48.206;16.340;2023-06-26T13:02:23;99069.31;;;49.69;10.37
16331;BME280;8275;48.206;16.340;2023-06-26T13:04:52;99071.22;;;49.78;10.07
16331;BME280;8275;48.206;16.340;2023-06-26T13:07:22;99057.44;;;49.62;10.77
16331;BME280;8275;48.206;16.340;2023-06-26T13:09:52;99053.09;;;49.24;11.00
16331;BME280;8275;48.206;16.340;2023-06-26T13:12:22;99061.28;;;48.67;11.10
16331;BME280;8275;48.206;16.340;2023-06-26T13:14:50;99060.91;;;48.48;11.04